Kingston Norman Rogers Airport
CYGK : rendu visible

Aérodrome :











RETROUVEZ-NOUS SUR...

 
LOGIN :

S'inscrire | Disclaimer

   EN    FR    IT 

 









Légende :    VFR   VFR Marginal   IFR   IFR Intensif   IFR Très Intensif
Visi : 
Plafond : 
>= 8 km
>= 3000ft
5 à 8 km
1000 à 3000 ft
1500m à 5 km
500 à 1000 ft
800 à 1500m
200 à 500 ft
< 800m
< 200 ft
Symboles :   Orages  Brouillard  Fortes neiges  Fortes précipitations  Vent > 20 kt






- Altitude de l'aérodrome : 305 ft
- Code IATA : YGK


CYGK - Kingston Norman Rogers

DERNIER METAR :
  • 171300Z 05006KT 15SM SCT180 M09/M13 A3039 RMK AC3 SLP299

METARs EXPIRÉS :
  • 171200Z 03008KT 15SM SCT190 M10/M14 A3040 RMK AC4 SLP302
  • 171100Z 05008KT 15SM SCT200 BKN240 M10/M14 A3041 RMK CI3CI2 SLP306

TAF TAF CYGK
Valide du 17 à 13h jusqu'au 18 à 01h UTC


171238Z 1713/1801 03008KT P6SM FEW150
BECMG 1713/1715 13010KT RMK NXT FCST BY 172000Z



MET'MAP, la Météo Aéronautique d'un coup d'oeil ! - Copyright ORBIFLY Décembre 2007 - Disclaimer

ORBIFLY MET'MAP TEAM :

Programmation & Développement : Alexandra Zaïnal
Conception & Développement : Baudouin d'Aumeries
Co-Programmation & Développement : Marc-Olivier Méhu
Soutien technique & logistique : Manuel Goepfert

Contact : metmap@orbifly.com




SOURCES & CREDITS :

   NOAA       Earth
Advisory